GW1175 Weather Reports


time (UTC)temp
F
wind
direction
speed
knots
gust
knots
rain 1hr
in
rain 24hr
in
rain mn
in
humidity
%
barometer
mb
20220812001621 89 113 0.9 4.3 0.00 0.00 0.00 47 1020.4
20220812001121 89 106 0.0 0.0 0.00 0.00 0.00 47 1020.3
20220812000620 90 110 0.9 1.7 0.00 0.00 0.00 46 1020.1
20220812000119 90 118 0.0 1.7 0.00 0.00 0.00 47 1020.4
20220811235619 90 113 0.9 1.7 0.00 0.00 0.00 46 1020.3
20220811235118 90 89 0.0 0.9 0.00 0.00 0.00 45 1020.6
20220811234618 90 163 1.7 4.3 0.00 0.00 0.00 44 1020.4
20220811234117 90 122 0.0 0.9 0.00 0.00 0.00 43 1020.7
20220811233617 90 101 0.0 2.6 0.00 0.00 0.00 43 1020.6
20220811233117 90 96 0.0 1.7 0.00 0.00 0.00 44 1020.7
20220811232616 91 92 1.7 1.7 0.00 0.00 0.00 41 1020.4
20220811232115 91 107 0.0 1.7 0.00 0.00 0.00 41 1020.6
20220811231614 91 121 0.9 2.6 0.00 0.00 0.00 42 1020.6
20220811231113 91 108 0.0 2.6 0.00 0.00 0.00 40 1020.4
20220811230613 91 131 1.7 4.3 0.00 0.00 0.00 39 1020.5
20220811230111 91 159 0.9 2.6 0.00 0.00 0.00 40 1020.5
20220811225609 92 170 1.7 2.6 0.00 0.00 0.00 39 1020.5
20220811225108 91 172 1.7 2.6 0.00 0.00 0.00 39 1020.4
20220811224608 92 99 0.0 1.7 0.00 0.00 0.00 41 1020.5
20220811224107 92 96 1.7 2.6 0.00 0.00 0.00 41 1020.3
20220811223606 92 77 0.0 0.0 0.00 0.00 0.00 40 1020.4
20220811223105 92 130 1.7 2.6 0.00 0.00 0.00 38 1020.5
20220811222605 92 112 0.0 2.6 0.00 0.00 0.00 39 1020.6
20220811222104 92 124 1.7 2.6 0.00 0.00 0.00 38 1020.7
20220811221604 92 97 0.9 4.3 0.00 0.00 0.00 38 1020.6
20220811221103 92 140 1.7 4.3 0.00 0.00 0.00 40 1020.5
20220811220603 93 143 1.7 2.6 0.00 0.00 0.00 40 1020.5
20220811220101 93 124 1.7 2.6 0.00 0.00 0.00 42 1020.5
20220811215601 92 124 0.9 2.6 0.00 0.00 0.00 41 1020.6
20220811215059 92 153 0.9 1.7 0.00 0.00 0.00 40 1020.6
20220811214558 93 143 0.9 2.6 0.00 0.00 0.00 40 1020.9
20220811214057 93 142 0.9 1.7 0.00 0.00 0.00 41 1020.9
20220811213557 93 164 1.7 1.7 0.00 0.00 0.00 40 1020.9
20220811213055 92 106 0.0 1.7 0.00 0.00 0.00 43 1021.0
20220811212553 92 118 0.9 1.7 0.00 0.00 0.00 42 1021.0
20220811212052 92 104 0.9 0.9 0.00 0.00 0.00 42 1021.1
20220811211552 93 109 2.6 4.3 0.00 0.00 0.00 40 1021.1
20220811211051 93 114 0.9 1.7 0.00 0.00 0.00 39 1021.2
20220811210551 93 112 0.9 5.2 0.00 0.00 0.00 41 1021.4
20220811210050 93 97 0.9 2.6 0.00 0.00 0.00 40 1021.3
20220811205550 92 70 0.9 2.6 0.00 0.00 0.00 42 1021.3
20220811205048 92 94 0.0 2.6 0.00 0.00 0.00 40 1021.4
20220811204547 92 150 2.6 4.3 0.00 0.00 0.00 40 1021.4
20220811204045 92 140 1.7 1.7 0.00 0.00 0.00 41 1021.5
20220811203544 91 121 0.9 1.7 0.00 0.00 0.00 43 1021.5
20220811203043 91 120 0.0 0.9 0.00 0.00 0.00 42 1021.5
20220811202542 93 78 0.9 1.7 0.00 0.00 0.00 43 1021.5
20220811202041 92 138 0.0 0.9 0.00 0.00 0.00 41 1021.5
20220811201541 92 127 0.9 5.2 0.00 0.00 0.00 42 1021.6
20220811201040 92 101 0.0 1.7 0.00 0.00 0.00 41 1021.7
20220811200539 91 74 0.9 1.7 0.00 0.00 0.00 43 1021.7
20220811200038 92 193 1.7 4.3 0.00 0.00 0.00 41 1021.8
20220811195535 92 118 0.9 2.6 0.00 0.00 0.00 40 1021.7
20220811195034 92 125 1.7 4.3 0.00 0.00 0.00 40 1022.0
20220811194532 92 102 0.9 0.9 0.00 0.00 0.00 42 1021.9
20220811194031 91 133 0.9 2.6 0.00 0.00 0.00 41 1022.0
20220811193530 90 117 0.9 1.7 0.00 0.00 0.00 43 1022.1
20220811193028 91 117 2.6 2.6 0.00 0.00 0.00 43 1022.3
20220811192527 91 129 1.7 2.6 0.00 0.00 0.00 40 1022.2
20220811192027 90 185 2.6 2.6 0.00 0.00 0.00 42 1022.3
20220811191526 91 188 2.6 2.6 0.00 0.00 0.00 41 1022.1
20220811191026 92 203 2.6 2.6 0.00 0.00 0.00 41 1022.3
20220811190525 92 75 0.0 1.7 0.00 0.00 0.00 42 1022.4
20220811190024 91 90 0.0 2.6 0.00 0.00 0.00 43 1022.4
20220811185523 91 122 0.9 1.7 0.00 0.00 0.00 42 1022.5
20220811185022 91 150 1.7 2.6 0.00 0.00 0.00 42 1022.4
20220811184521 91 140 2.6 4.3 0.00 0.00 0.00 43 1022.4
20220811184021 92 172 2.6 4.3 0.00 0.00 0.00 41 1022.5
20220811183520 92 112 0.0 1.7 0.00 0.00 0.00 44 1022.5
20220811183019 91 143 2.6 4.3 0.00 0.00 0.00 42 1022.3
20220811182518 91 146 0.9 2.6 0.00 0.00 0.00 42 1022.8
20220811182017 91 139 1.7 2.6 0.00 0.00 0.00 44 1022.5
20220811181516 91 99 0.0 0.9 0.00 0.00 0.00 44 1022.7
20220811181016 91 85 0.0 0.0 0.00 0.00 0.00 46 1022.7
20220811180516 91 130 0.9 5.2 0.00 0.00 0.00 43 1022.8
20220811180014 91 108 0.0 1.7 0.00 0.00 0.00 46 1022.9
20220811175512 90 108 0.0 1.7 0.00 0.00 0.00 44 1023.1
20220811175010 90 120 0.9 4.3 0.00 0.00 0.00 44 1023.0
20220811174510 89 122 0.9 2.6 0.00 0.00 0.00 45 1022.9
20220811174009 90 118 0.9 2.6 0.00 0.00 0.00 44 1023.1
20220811173508 89 137 2.6 5.2 0.00 0.00 0.00 44 1023.2
20220811173007 89 123 1.7 2.6 0.00 0.00 0.00 45 1023.5
20220811172506 89 170 2.6 2.6 0.00 0.00 0.00 46 1023.5
20220811172005 90 104 0.9 4.3 0.00 0.00 0.00 46 1023.3
20220811171505 90 98 0.9 1.7 0.00 0.00 0.00 45 1023.6
20220811171003 89 98 0.0 0.9 0.00 0.00 0.00 47 1023.3
20220811170503 88 93 0.9 2.6 0.00 0.00 0.00 49 1023.6
20220811170002 89 101 0.9 0.9 0.00 0.00 0.00 50 1023.6
20220811165501 89 143 1.7 2.6 0.00 0.00 0.00 48 1023.5
20220811165002 87 95 0.0 1.7 0.00 0.00 0.00 50 1023.5
20220811164501 87 124 0.9 2.6 0.00 0.00 0.00 48 1023.6
20220811164000 88 118 0.9 0.9 0.00 0.00 0.00 49 1023.6
20220811163500 88 125 0.9 1.7 0.00 0.00 0.00 47 1023.8
20220811162958 87 104 0.9 2.6 0.00 0.00 0.00 48 1023.5
20220811162457 87 113 0.9 0.9 0.00 0.00 0.00 50 1023.8
20220811161956 87 140 0.9 1.7 0.00 0.00 0.00 48 1023.7
20220811161455 87 67 0.0 0.9 0.00 0.00 0.00 49 1023.7
20220811160953 86 138 0.9 1.7 0.00 0.00 0.00 51 1023.8
20220811160452 87 131 0.9 0.9 0.00 0.00 0.00 49 1024.0
20220811155951 86 117 0.0 0.0 0.00 0.00 0.00 49 1023.9
20220811155450 86 121 0.0 1.7 0.00 0.00 0.00 49 1023.9
20220811154949 85 110 0.0 0.9 0.00 0.00 0.00 51 1024.0
20220811154448 85 109 0.0 0.9 0.00 0.00 0.00 51 1024.1
20220811153947 84 115 0.0 2.6 0.00 0.00 0.00 51 1024.0
20220811153445 84 108 0.9 1.7 0.00 0.00 0.00 51 1024.1
20220811152944 84 108 0.0 0.9 0.00 0.00 0.00 52 1024.0
20220811152443 84 92 0.0 1.7 0.00 0.00 0.00 53 1024.0
20220811151942 84 98 0.0 0.9 0.00 0.00 0.00 54 1024.1
20220811151442 83 99 0.0 0.9 0.00 0.00 0.00 54 1024.1
20220811150940 82 87 0.0 0.9 0.00 0.00 0.00 55 1024.0
20220811150439 82 100 0.0 0.0 0.00 0.00 0.00 56 1024.1
20220811145939 81 81 0.0 0.9 0.00 0.00 0.00 59 1024.2
20220811145440 80 97 0.0 1.7 0.00 0.00 0.00 60 1024.1
20220811144938 80 106 0.0 0.9 0.00 0.00 0.00 61 1024.0
20220811144438 81 105 0.0 1.7 0.00 0.00 0.00 57 1024.1
20220811143937 81 109 0.0 2.6 0.00 0.00 0.00 58 1024.0
20220811143437 81 110 0.0 0.9 0.00 0.00 0.00 59 1023.9
20220811142936 81 111 0.0 0.9 0.00 0.00 0.00 60 1024.1
20220811142435 80 106 0.0 0.9 0.00 0.00 0.00 60 1024.1
20220811141934 81 82 0.0 0.0 0.00 0.00 0.00 61 1024.1
20220811141434 80 81 0.0 0.9 0.00 0.00 0.00 63 1024.1
20220811140932 79 126 0.0 0.9 0.00 0.00 0.00 61 1024.4
20220811140432 79 121 0.0 0.0 0.00 0.00 0.00 60 1024.0
20220811135931 79 121 0.0 0.0 0.00 0.00 0.00 61 1024.0
20220811135431 79 121 0.0 0.0 0.00 0.00 0.00 61 1024.1
20220811134929 79 113 0.0 0.0 0.00 0.00 0.00 64 1024.3
20220811134428 78 114 0.0 0.9 0.00 0.00 0.00 65 1024.1
20220811133928 78 112 0.0 0.0 0.00 0.00 0.00 66 1024.2
20220811133427 77 106 0.0 0.0 0.00 0.00 0.00 65 1024.1
20220811132926 77 106 0.0 0.0 0.00 0.00 0.00 67 1024.0
20220811132425 77 115 0.0 0.0 0.00 0.00 0.00 67 1024.1
20220811131924 76 114 0.0 0.0 0.00 0.00 0.00 69 1024.1
20220811131424 76 115 0.0 0.0 0.00 0.00 0.00 70 1024.0
20220811130923 76 113 0.0 0.0 0.00 0.00 0.00 70 1024.0
20220811130423 76 113 0.0 0.0 0.00 0.00 0.00 70 1024.1
20220811125919 75 113 0.0 0.0 0.00 0.00 0.00 73 1024.0
20220811125418 74 113 0.0 0.0 0.00 0.00 0.00 75 1024.0
20220811124916 73 113 0.0 0.0 0.00 0.00 0.00 78 1024.0
20220811124415 71 113 0.0 0.0 0.00 0.00 0.00 81 1023.8
20220811123915 69 113 0.0 0.0 0.00 0.00 0.00 86 1023.7
20220811123415 68 114 0.0 0.0 0.00 0.00 0.00 87 1023.8
20220811122913 67 114 0.0 0.0 0.00 0.00 0.00 87 1023.8
20220811122413 67 114 0.0 0.0 0.00 0.00 0.00 88 1023.8
20220811121910 66 114 0.0 0.0 0.00 0.00 0.00 89 1023.8
20220811121407 66 114 0.0 0.0 0.00 0.00 0.00 89 1023.6
20220811120907 66 114 0.0 0.0 0.00 0.00 0.00 89 1023.8
20220811120406 66 114 0.0 0.0 0.00 0.00 0.00 89 1023.5
20220811115906 66 114 0.0 0.0 0.00 0.00 0.00 89 1023.7
20220811115406 66 114 0.0 0.0 0.00 0.00 0.00 89 1023.6
20220811114905 66 114 0.0 0.0 0.00 0.00 0.00 89 1023.6
20220811114404 66 114 0.0 0.0 0.00 0.00 0.00 89 1023.5
20220811113904 66 114 0.0 0.0 0.00 0.00 0.00 88 1023.5
20220811113403 66 114 0.0 0.0 0.00 0.00 0.00 88 1023.6
20220811112902 66 114 0.0 0.0 0.00 0.00 0.00 88 1023.6
20220811112402 67 114 0.0 0.0 0.00 0.00 0.00 88 1023.6
20220811111902 67 114 0.0 0.0 0.00 0.00 0.00 88 1023.3
20220811111400 67 114 0.0 0.0 0.00 0.00 0.00 87 1023.3
20220811110859 67 114 0.0 0.0 0.00 0.00 0.00 88 1023.5
20220811110400 67 114 0.0 0.0 0.00 0.00 0.00 88 1023.3
20220811105859 67 114 0.0 0.0 0.00 0.00 0.00 88 1023.3
20220811105359 67 114 0.0 0.0 0.00 0.00 0.00 87 1023.5
20220811104858 67 114 0.0 0.0 0.00 0.00 0.00 88 1023.3
20220811104357 67 114 0.0 0.0 0.00 0.00 0.00 87 1023.2
20220811103855 67 114 0.0 0.0 0.00 0.00 0.00 87 1023.2
20220811103353 68 114 0.0 0.0 0.00 0.00 0.00 87 1023.3
20220811102851 68 114 0.0 0.0 0.00 0.00 0.00 86 1023.1
20220811102351 68 114 0.0 0.0 0.00 0.00 0.00 86 1023.5
20220811101850 68 114 0.0 0.0 0.00 0.00 0.00 86 1023.2
20220811101349 68 114 0.0 0.0 0.00 0.00 0.00 85 1023.2
20220811100848 68 114 0.0 0.0 0.00 0.00 0.00 85 1023.2
20220811100346 69 114 0.0 0.0 0.00 0.00 0.00 84 1023.2
20220811095844 69 114 0.0 0.0 0.00 0.00 0.00 84 1023.2
20220811095343 69 114 0.0 0.0 0.00 0.00 0.00 83 1023.2
20220811094841 69 114 0.0 0.0 0.00 0.00 0.00 83 1023.1
20220811094340 69 114 0.0 0.0 0.00 0.00 0.00 83 1023.0
20220811093840 69 114 0.0 0.0 0.00 0.00 0.00 83 1023.1
20220811093338 69 114 0.0 0.0 0.00 0.00 0.00 83 1023.0
20220811092839 69 114 0.0 0.0 0.00 0.00 0.00 83 1022.9
20220811092337 70 114 0.0 0.0 0.00 0.00 0.00 83 1023.1
20220811091837 69 114 0.0 0.0 0.00 0.00 0.00 83 1023.1
20220811091336 69 114 0.0 0.0 0.00 0.00 0.00 84 1023.0
20220811090835 69 114 0.0 0.0 0.00 0.00 0.00 84 1023.0
20220811090334 69 114 0.0 0.0 0.00 0.00 0.00 84 1023.1
20220811085834 69 114 0.0 0.0 0.00 0.00 0.00 84 1023.1
20220811085332 69 114 0.0 0.0 0.00 0.00 0.00 83 1023.0
20220811084832 69 114 0.0 0.0 0.00 0.00 0.00 84 1023.2
20220811084331 70 114 0.0 0.0 0.00 0.00 0.00 83 1023.3
20220811083830 70 114 0.0 0.0 0.00 0.00 0.00 83 1023.1
20220811083329 70 114 0.0 0.0 0.00 0.00 0.00 84 1023.3
20220811082827 70 114 0.0 0.0 0.00 0.00 0.00 83 1023.1
20220811082327 70 114 0.0 0.0 0.00 0.00 0.00 84 1023.1
20220811081826 70 114 0.0 0.0 0.00 0.00 0.00 83 1023.3
20220811081326 70 114 0.0 0.0 0.00 0.00 0.00 83 1023.2
20220811080824 70 114 0.0 0.0 0.00 0.00 0.00 83 1023.5
20220811080324 70 114 0.0 0.0 0.00 0.00 0.00 83 1023.3
20220811075823 70 114 0.0 0.0 0.00 0.00 0.00 82 1023.1
20220811075323 71 114 0.0 0.0 0.00 0.00 0.00 83 1023.3
20220811074823 71 114 0.0 0.0 0.00 0.00 0.00 82 1023.3
20220811074322 71 114 0.0 0.0 0.00 0.00 0.00 82 1023.2
20220811073821 71 114 0.0 0.0 0.00 0.00 0.00 81 1023.3
20220811073320 71 114 0.0 0.0 0.00 0.00 0.00 81 1023.1
20220811072819 71 114 0.0 0.0 0.00 0.00 0.00 81 1023.2
20220811072319 71 114 0.0 0.0 0.00 0.00 0.00 81 1023.2
20220811071818 71 114 0.0 0.0 0.00 0.00 0.00 80 1023.2
20220811071316 71 114 0.0 0.0 0.00 0.00 0.00 80 1023.3
20220811070813 72 114 0.0 0.0 0.00 0.00 0.00 80 1023.2
20220811070311 71 114 0.0 0.0 0.00 0.00 0.00 81 1023.3
20220811065811 72 114 0.0 0.0 0.00 0.00 0.00 81 1023.3
20220811065310 72 114 0.0 0.0 0.00 0.00 0.00 80 1023.5
20220811064809 72 114 0.0 0.0 0.00 0.00 0.00 79 1023.3
20220811064308 72 114 0.0 0.0 0.00 0.00 0.00 80 1023.2
20220811063808 72 114 0.0 0.0 0.00 0.00 0.00 80 1023.6
20220811063308 72 114 0.0 0.0 0.00 0.00 0.00 80 1023.2
20220811062806 72 114 0.0 0.0 0.00 0.00 0.00 80 1023.2
20220811062306 72 114 0.0 0.0 0.00 0.00 0.00 81 1023.3
20220811061805 72 114 0.0 0.0 0.00 0.00 0.00 81 1023.5
20220811061304 72 114 0.0 0.0 0.00 0.00 0.00 80 1023.5
20220811060804 72 114 0.0 0.0 0.00 0.00 0.00 79 1023.3
20220811060303 73 114 0.0 0.0 0.00 0.00 0.00 79 1023.3
20220811055802 73 114 0.0 0.0 0.00 0.00 0.00 78 1023.3
20220811055302 73 114 0.0 0.0 0.00 0.00 0.00 77 1023.5
20220811054801 74 114 0.0 0.0 0.00 0.00 0.00 76 1023.3
20220811054300 74 114 0.0 0.0 0.00 0.00 0.00 76 1023.1
20220811053759 74 114 0.0 0.0 0.00 0.00 0.00 75 1023.2
20220811053258 74 114 0.0 0.0 0.00 0.00 0.00 75 1023.5
20220811052757 75 114 0.0 0.0 0.00 0.00 0.00 74 1023.5
20220811052256 75 114 0.0 0.0 0.00 0.00 0.00 73 1023.3
20220811051755 75 114 0.0 0.0 0.00 0.00 0.00 73 1023.1
20220811051254 75 114 0.0 0.0 0.00 0.00 0.00 73 1023.2
20220811050753 76 114 0.0 0.0 0.00 0.00 0.00 72 1023.3
20220811050252 76 114 0.0 0.0 0.00 0.00 0.00 71 1023.3
20220811045751 76 114 0.0 0.0 0.00 0.00 0.00 71 1023.1
20220811045250 77 114 0.0 0.0 0.00 0.00 0.00 70 1023.1
20220811044749 77 114 0.0 0.0 0.00 0.00 0.00 69 1023.3
20220811044248 77 114 0.0 0.0 0.00 0.00 0.00 69 1023.3
20220811043748 78 114 0.0 0.0 0.00 0.00 0.00 68 1023.3
20220811043247 78 114 0.0 0.0 0.00 0.00 0.00 68 1023.3
20220811042747 78 114 0.0 0.0 0.00 0.00 0.00 68 1023.2
20220811042246 78 114 0.0 0.0 0.00 0.00 0.00 67 1023.2
20220811041745 78 114 0.0 0.0 0.00 0.00 0.00 66 1023.0
20220811041243 78 114 0.0 0.0 0.00 0.00 0.00 66 1023.2
20220811040742 78 114 0.0 0.0 0.00 0.00 0.00 66 1023.1
20220811040242 78 114 0.0 0.0 0.00 0.00 0.00 66 1023.0
20220811035741 78 114 0.0 0.0 0.00 0.00 0.00 66 1023.0
20220811035241 79 114 0.0 0.0 0.00 0.00 0.00 66 1023.0
20220811034740 79 114 0.0 0.0 0.00 0.00 0.00 65 1023.2
20220811034240 79 114 0.0 0.0 0.00 0.00 0.00 65 1023.2
20220811033739 79 114 0.0 0.9 0.00 0.00 0.00 65 1023.1
20220811033238 79 114 0.0 0.0 0.00 0.00 0.00 64 1023.2
20220811032738 80 114 0.0 0.9 0.00 0.00 0.00 64 1023.2
20220811032237 80 114 0.0 0.0 0.00 0.00 0.00 63 1023.0
20220811031736 80 114 0.0 1.7 0.00 0.00 0.00 63 1023.1
20220811031235 80 105 0.0 0.0 0.00 0.00 0.00 63 1023.0
20220811030735 80 105 0.0 0.0 0.00 0.00 0.00 62 1022.9
20220811030234 81 103 0.0 0.9 0.00 0.00 0.00 61 1022.9
20220811025732 81 118 0.0 0.0 0.00 0.00 0.00 61 1022.8
20220811025232 81 121 0.0 1.7 0.00 0.00 0.00 61 1022.7
20220811024731 81 117 0.0 0.0 0.00 0.00 0.00 60 1022.8
20220811024229 81 117 0.0 0.0 0.00 0.00 0.00 60 1022.8
20220811023729 81 117 0.0 0.0 0.00 0.00 0.00 60 1022.6
20220811023228 81 117 0.0 0.0 0.00 0.00 0.00 60 1022.6
20220811022727 82 117 0.0 0.0 0.00 0.00 0.00 59 1022.5
20220811022226 82 117 0.0 0.9 0.00 0.00 0.00 58 1022.6
20220811021723 82 117 0.0 0.0 0.00 0.00 0.00 58 1022.4
20220811021222 83 117 0.0 0.9 0.00 0.00 0.00 57 1022.3
20220811020721 83 117 0.0 0.9 0.00 0.00 0.00 56 1022.4
20220811020220 83 95 0.0 0.9 0.00 0.00 0.00 56 1022.4
20220811015719 84 102 0.9 0.9 0.00 0.00 0.00 56 1022.1
20220811015219 84 105 0.0 1.7 0.00 0.00 0.00 55 1022.3
20220811014718 84 113 0.0 0.9 0.00 0.00 0.00 54 1022.3
20220811014217 84 94 0.9 4.3 0.00 0.00 0.00 54 1022.2
20220811013717 84 131 0.9 1.7 0.00 0.00 0.00 55 1022.0
20220811013216 84 113 0.0 0.9 0.00 0.00 0.00 55 1022.0
20220811012716 84 108 0.0 0.9 0.00 0.00 0.00 55 1021.9
20220811012216 85 106 0.0 0.9 0.00 0.00 0.00 55 1021.8
20220811011714 85 103 0.0 0.9 0.00 0.00 0.00 54 1021.8
20220811011213 85 121 0.9 1.7 0.00 0.00 0.00 53 1021.7
20220811010712 85 107 0.0 0.9 0.00 0.00 0.00 54 1021.9
20220811010211 86 124 0.9 1.7 0.00 0.00 0.00 52 1021.9
20220811005710 86 114 0.0 0.9 0.00 0.00 0.00 53 1021.9
20220811005209 86 134 1.7 1.7 0.00 0.00 0.00 52 1021.7
20220811004709 87 115 0.0 0.9 0.00 0.00 0.00 53 1021.9
20220811004208 87 111 0.9 1.7 0.00 0.00 0.00 52 1021.7
20220811003707 87 103 0.0 0.9 0.00 0.00 0.00 52 1022.0
20220811003205 87 103 0.0 0.9 0.00 0.00 0.00 51 1021.7
20220811002705 87 104 0.0 0.9 0.00 0.00 0.00 51 1021.8
20220811002205 88 122 0.9 1.7 0.00 0.00 0.00 50 1021.7